sensor_id;sensor_type;location;lat;lon;timestamp;P1;durP1;ratioP1;P2;durP2;ratioP2
20399;SDS011;10359;53.596;22.520;2022-11-18T00:00:34;7.47;;;5.27;;
20399;SDS011;10359;53.596;22.520;2022-11-18T00:03:03;5.77;;;4.77;;
20399;SDS011;10359;53.596;22.520;2022-11-18T00:05:34;7.70;;;5.17;;
20399;SDS011;10359;53.596;22.520;2022-11-18T00:08:03;8.63;;;4.90;;
20399;SDS011;10359;53.596;22.520;2022-11-18T00:10:37;7.63;;;5.00;;
20399;SDS011;10359;53.596;22.520;2022-11-18T00:13:09;7.43;;;5.27;;
20399;SDS011;10359;53.596;22.520;2022-11-18T00:15:58;7.13;;;5.23;;
20399;SDS011;10359;53.596;22.520;2022-11-18T00:18:29;10.03;;;6.33;;
20399;SDS011;10359;53.596;22.520;2022-11-18T00:20:59;7.80;;;5.50;;
20399;SDS011;10359;53.596;22.520;2022-11-18T00:23:29;8.60;;;5.67;;
20399;SDS011;10359;53.596;22.520;2022-11-18T00:26:04;7.50;;;5.17;;
20399;SDS011;10359;53.596;22.520;2022-11-18T00:28:34;7.60;;;4.83;;
20399;SDS011;10359;53.596;22.520;2022-11-18T00:31:05;6.70;;;5.03;;
20399;SDS011;10359;53.596;22.520;2022-11-18T00:33:35;5.83;;;4.53;;
20399;SDS011;10359;53.596;22.520;2022-11-18T00:36:06;8.07;;;5.50;;
20399;SDS011;10359;53.596;22.520;2022-11-18T00:38:37;6.53;;;5.10;;
20399;SDS011;10359;53.596;22.520;2022-11-18T00:41:09;6.93;;;4.63;;
20399;SDS011;10359;53.596;22.520;2022-11-18T00:43:39;6.43;;;4.50;;
20399;SDS011;10359;53.596;22.520;2022-11-18T00:46:08;5.13;;;4.00;;
20399;SDS011;10359;53.596;22.520;2022-11-18T00:48:39;7.20;;;4.30;;
20399;SDS011;10359;53.596;22.520;2022-11-18T00:51:10;5.53;;;3.90;;
20399;SDS011;10359;53.596;22.520;2022-11-18T00:53:42;9.03;;;6.07;;
20399;SDS011;10359;53.596;22.520;2022-11-18T00:56:13;6.23;;;5.10;;
20399;SDS011;10359;53.596;22.520;2022-11-18T00:58:43;5.50;;;4.27;;
20399;SDS011;10359;53.596;22.520;2022-11-18T01:01:12;6.73;;;4.37;;
20399;SDS011;10359;53.596;22.520;2022-11-18T01:03:42;6.70;;;4.90;;
20399;SDS011;10359;53.596;22.520;2022-11-18T01:06:11;5.17;;;4.37;;
20399;SDS011;10359;53.596;22.520;2022-11-18T01:08:40;6.20;;;4.00;;
20399;SDS011;10359;53.596;22.520;2022-11-18T01:11:11;4.23;;;3.40;;
20399;SDS011;10359;53.596;22.520;2022-11-18T01:14:00;4.87;;;3.40;;
20399;SDS011;10359;53.596;22.520;2022-11-18T01:16:29;4.60;;;3.20;;
20399;SDS011;10359;53.596;22.520;2022-11-18T01:18:59;5.67;;;3.30;;
20399;SDS011;10359;53.596;22.520;2022-11-18T01:21:31;4.63;;;3.40;;
20399;SDS011;10359;53.596;22.520;2022-11-18T01:24:00;5.00;;;3.50;;
20399;SDS011;10359;53.596;22.520;2022-11-18T01:26:31;4.57;;;3.30;;
20399;SDS011;10359;53.596;22.520;2022-11-18T01:29:00;4.00;;;3.50;;
20399;SDS011;10359;53.596;22.520;2022-11-18T01:31:30;6.17;;;3.40;;
20399;SDS011;10359;53.596;22.520;2022-11-18T01:34:00;4.50;;;3.40;;
20399;SDS011;10359;53.596;22.520;2022-11-18T01:36:30;4.93;;;3.40;;
20399;SDS011;10359;53.596;22.520;2022-11-18T01:38:59;5.47;;;4.03;;
20399;SDS011;10359;53.596;22.520;2022-11-18T01:41:30;5.97;;;3.90;;
20399;SDS011;10359;53.596;22.520;2022-11-18T01:44:00;6.20;;;4.70;;
20399;SDS011;10359;53.596;22.520;2022-11-18T01:46:32;5.97;;;4.50;;
20399;SDS011;10359;53.596;22.520;2022-11-18T01:49:03;7.00;;;4.60;;
20399;SDS011;10359;53.596;22.520;2022-11-18T01:51:36;5.97;;;4.50;;
20399;SDS011;10359;53.596;22.520;2022-11-18T01:54:13;6.10;;;4.20;;
20399;SDS011;10359;53.596;22.520;2022-11-18T01:56:48;7.10;;;4.80;;
20399;SDS011;10359;53.596;22.520;2022-11-18T01:59:21;6.60;;;4.80;;
20399;SDS011;10359;53.596;22.520;2022-11-18T02:01:53;6.70;;;5.03;;
20399;SDS011;10359;53.596;22.520;2022-11-18T02:04:25;6.93;;;4.80;;
20399;SDS011;10359;53.596;22.520;2022-11-18T02:06:55;6.80;;;5.07;;
20399;SDS011;10359;53.596;22.520;2022-11-18T02:09:25;6.93;;;4.67;;
20399;SDS011;10359;53.596;22.520;2022-11-18T02:11:57;8.13;;;5.17;;
20399;SDS011;10359;53.596;22.520;2022-11-18T02:14:51;6.50;;;4.57;;
20399;SDS011;10359;53.596;22.520;2022-11-18T02:17:24;6.70;;;4.83;;
20399;SDS011;10359;53.596;22.520;2022-11-18T02:20:12;7.93;;;4.87;;
20399;SDS011;10359;53.596;22.520;2022-11-18T02:26:19;7.73;;;5.17;;
20399;SDS011;10359;53.596;22.520;2022-11-18T02:29:07;7.23;;;4.40;;
20399;SDS011;10359;53.596;22.520;2022-11-18T02:31:41;8.43;;;5.33;;
20399;SDS011;10359;53.596;22.520;2022-11-18T02:34:17;6.87;;;4.87;;
20399;SDS011;10359;53.596;22.520;2022-11-18T02:36:54;8.77;;;5.37;;
20399;SDS011;10359;53.596;22.520;2022-11-18T02:39:28;8.03;;;5.30;;
20399;SDS011;10359;53.596;22.520;2022-11-18T02:42:02;8.67;;;5.10;;
20399;SDS011;10359;53.596;22.520;2022-11-18T02:44:36;8.37;;;4.73;;
20399;SDS011;10359;53.596;22.520;2022-11-18T02:47:10;7.17;;;4.83;;
20399;SDS011;10359;53.596;22.520;2022-11-18T02:49:43;8.40;;;5.17;;
20399;SDS011;10359;53.596;22.520;2022-11-18T02:52:15;8.60;;;5.17;;
20399;SDS011;10359;53.596;22.520;2022-11-18T02:54:47;8.40;;;5.10;;
20399;SDS011;10359;53.596;22.520;2022-11-18T02:57:18;8.83;;;5.23;;
20399;SDS011;10359;53.596;22.520;2022-11-18T02:59:50;8.80;;;5.00;;
20399;SDS011;10359;53.596;22.520;2022-11-18T03:02:19;6.43;;;4.83;;
20399;SDS011;10359;53.596;22.520;2022-11-18T03:04:50;7.47;;;4.90;;
20399;SDS011;10359;53.596;22.520;2022-11-18T03:07:24;9.70;;;5.60;;
20399;SDS011;10359;53.596;22.520;2022-11-18T03:09:59;6.23;;;4.63;;
20399;SDS011;10359;53.596;22.520;2022-11-18T03:12:31;6.93;;;4.83;;
20399;SDS011;10359;53.596;22.520;2022-11-18T03:15:14;7.20;;;4.77;;
20399;SDS011;10359;53.596;22.520;2022-11-18T03:17:54;8.53;;;5.30;;
20399;SDS011;10359;53.596;22.520;2022-11-18T03:20:32;8.03;;;4.97;;
20399;SDS011;10359;53.596;22.520;2022-11-18T03:23:05;8.03;;;4.97;;
20399;SDS011;10359;53.596;22.520;2022-11-18T03:25:41;8.07;;;5.20;;
20399;SDS011;10359;53.596;22.520;2022-11-18T03:28:16;8.73;;;5.07;;
20399;SDS011;10359;53.596;22.520;2022-11-18T03:30:54;7.87;;;5.83;;
20399;SDS011;10359;53.596;22.520;2022-11-18T03:33:27;7.33;;;5.40;;
20399;SDS011;10359;53.596;22.520;2022-11-18T03:36:01;9.10;;;5.53;;
20399;SDS011;10359;53.596;22.520;2022-11-18T03:38:34;9.07;;;5.23;;
20399;SDS011;10359;53.596;22.520;2022-11-18T03:41:07;8.93;;;5.77;;
20399;SDS011;10359;53.596;22.520;2022-11-18T03:43:39;8.73;;;5.97;;
20399;SDS011;10359;53.596;22.520;2022-11-18T03:46:16;9.97;;;5.67;;
20399;SDS011;10359;53.596;22.520;2022-11-18T03:48:48;8.07;;;5.77;;
20399;SDS011;10359;53.596;22.520;2022-11-18T03:51:19;9.67;;;6.20;;
20399;SDS011;10359;53.596;22.520;2022-11-18T03:53:52;9.40;;;6.10;;
20399;SDS011;10359;53.596;22.520;2022-11-18T03:56:28;5.83;;;4.63;;
20399;SDS011;10359;53.596;22.520;2022-11-18T03:59:01;7.47;;;5.50;;
20399;SDS011;10359;53.596;22.520;2022-11-18T04:01:37;8.17;;;5.33;;
20399;SDS011;10359;53.596;22.520;2022-11-18T04:04:11;8.33;;;4.67;;
20399;SDS011;10359;53.596;22.520;2022-11-18T04:06:41;8.33;;;4.50;;
20399;SDS011;10359;53.596;22.520;2022-11-18T04:09:16;6.87;;;4.80;;
20399;SDS011;10359;53.596;22.520;2022-11-18T04:11:48;10.67;;;5.63;;
20399;SDS011;10359;53.596;22.520;2022-11-18T04:14:30;13.70;;;5.80;;
20399;SDS011;10359;53.596;22.520;2022-11-18T04:17:06;9.87;;;6.40;;
20399;SDS011;10359;53.596;22.520;2022-11-18T04:19:36;9.27;;;6.40;;
20399;SDS011;10359;53.596;22.520;2022-11-18T04:22:05;8.67;;;6.00;;
20399;SDS011;10359;53.596;22.520;2022-11-18T04:24:37;7.43;;;5.27;;
20399;SDS011;10359;53.596;22.520;2022-11-18T04:27:06;7.33;;;5.13;;
20399;SDS011;10359;53.596;22.520;2022-11-18T04:29:35;10.53;;;5.67;;
20399;SDS011;10359;53.596;22.520;2022-11-18T04:32:06;8.73;;;5.63;;
20399;SDS011;10359;53.596;22.520;2022-11-18T04:34:36;12.10;;;5.43;;
20399;SDS011;10359;53.596;22.520;2022-11-18T04:37:08;9.03;;;5.60;;
20399;SDS011;10359;53.596;22.520;2022-11-18T04:39:37;10.37;;;6.43;;
20399;SDS011;10359;53.596;22.520;2022-11-18T04:42:06;10.83;;;7.27;;
20399;SDS011;10359;53.596;22.520;2022-11-18T04:44:35;10.70;;;6.23;;
20399;SDS011;10359;53.596;22.520;2022-11-18T04:47:05;8.23;;;5.67;;
20399;SDS011;10359;53.596;22.520;2022-11-18T04:49:36;6.63;;;4.57;;
20399;SDS011;10359;53.596;22.520;2022-11-18T04:52:05;4.93;;;3.67;;
20399;SDS011;10359;53.596;22.520;2022-11-18T04:54:34;7.50;;;4.83;;
20399;SDS011;10359;53.596;22.520;2022-11-18T04:57:03;5.50;;;3.80;;
20399;SDS011;10359;53.596;22.520;2022-11-18T04:59:33;4.60;;;3.80;;
20399;SDS011;10359;53.596;22.520;2022-11-18T05:02:02;4.40;;;3.73;;
20399;SDS011;10359;53.596;22.520;2022-11-18T05:04:32;4.60;;;3.37;;
20399;SDS011;10359;53.596;22.520;2022-11-18T05:07:02;4.07;;;3.33;;
20399;SDS011;10359;53.596;22.520;2022-11-18T05:09:33;7.10;;;4.23;;
20399;SDS011;10359;53.596;22.520;2022-11-18T05:12:02;8.00;;;5.00;;
20399;SDS011;10359;53.596;22.520;2022-11-18T05:14:49;7.83;;;4.90;;
20399;SDS011;10359;53.596;22.520;2022-11-18T05:17:18;10.47;;;6.37;;
20399;SDS011;10359;53.596;22.520;2022-11-18T05:19:49;10.37;;;5.40;;
20399;SDS011;10359;53.596;22.520;2022-11-18T05:22:18;5.10;;;3.43;;
20399;SDS011;10359;53.596;22.520;2022-11-18T05:24:47;6.57;;;4.20;;
20399;SDS011;10359;53.596;22.520;2022-11-18T05:27:17;7.70;;;4.13;;
20399;SDS011;10359;53.596;22.520;2022-11-18T05:29:46;7.23;;;4.07;;
20399;SDS011;10359;53.596;22.520;2022-11-18T05:32:15;2.73;;;2.13;;
20399;SDS011;10359;53.596;22.520;2022-11-18T05:34:44;7.63;;;3.97;;
20399;SDS011;10359;53.596;22.520;2022-11-18T05:37:15;7.60;;;4.67;;
20399;SDS011;10359;53.596;22.520;2022-11-18T05:39:45;7.53;;;5.40;;
20399;SDS011;10359;53.596;22.520;2022-11-18T05:42:14;6.03;;;4.10;;
20399;SDS011;10359;53.596;22.520;2022-11-18T05:45:00;9.63;;;4.90;;
20399;SDS011;10359;53.596;22.520;2022-11-18T05:47:29;7.47;;;4.50;;
20399;SDS011;10359;53.596;22.520;2022-11-18T05:50:18;8.90;;;5.90;;
20399;SDS011;10359;53.596;22.520;2022-11-18T05:52:49;9.90;;;6.33;;
20399;SDS011;10359;53.596;22.520;2022-11-18T05:55:18;5.17;;;3.90;;
20399;SDS011;10359;53.596;22.520;2022-11-18T05:57:50;7.57;;;4.30;;
20399;SDS011;10359;53.596;22.520;2022-11-18T06:00:19;4.83;;;3.40;;
20399;SDS011;10359;53.596;22.520;2022-11-18T06:02:49;4.03;;;3.20;;
20399;SDS011;10359;53.596;22.520;2022-11-18T06:05:20;5.83;;;4.30;;
20399;SDS011;10359;53.596;22.520;2022-11-18T06:07:53;7.00;;;4.10;;
20399;SDS011;10359;53.596;22.520;2022-11-18T06:10:24;6.47;;;3.60;;
20399;SDS011;10359;53.596;22.520;2022-11-18T06:12:57;7.30;;;3.43;;
20399;SDS011;10359;53.596;22.520;2022-11-18T06:15:30;11.37;;;8.57;;
20399;SDS011;10359;53.596;22.520;2022-11-18T06:18:02;7.07;;;4.43;;
20399;SDS011;10359;53.596;22.520;2022-11-18T06:20:37;7.27;;;3.93;;
20399;SDS011;10359;53.596;22.520;2022-11-18T06:23:10;10.33;;;8.67;;
20399;SDS011;10359;53.596;22.520;2022-11-18T06:25:40;8.03;;;5.57;;
20399;SDS011;10359;53.596;22.520;2022-11-18T06:28:09;5.27;;;3.60;;
20399;SDS011;10359;53.596;22.520;2022-11-18T06:30:41;4.83;;;3.77;;
20399;SDS011;10359;53.596;22.520;2022-11-18T06:33:10;6.37;;;4.23;;
20399;SDS011;10359;53.596;22.520;2022-11-18T06:35:40;11.07;;;7.93;;
20399;SDS011;10359;53.596;22.520;2022-11-18T06:38:11;8.97;;;5.47;;
20399;SDS011;10359;53.596;22.520;2022-11-18T06:40:40;9.07;;;6.00;;
20399;SDS011;10359;53.596;22.520;2022-11-18T06:43:11;8.83;;;5.43;;
20399;SDS011;10359;53.596;22.520;2022-11-18T06:45:57;7.73;;;3.63;;
20399;SDS011;10359;53.596;22.520;2022-11-18T06:48:44;13.97;;;9.70;;
20399;SDS011;10359;53.596;22.520;2022-11-18T06:51:15;6.17;;;4.57;;
20399;SDS011;10359;53.596;22.520;2022-11-18T06:53:46;5.63;;;4.33;;
20399;SDS011;10359;53.596;22.520;2022-11-18T06:56:15;5.23;;;3.77;;
20399;SDS011;10359;53.596;22.520;2022-11-18T06:58:45;6.57;;;3.97;;
20399;SDS011;10359;53.596;22.520;2022-11-18T07:01:16;17.63;;;11.07;;
20399;SDS011;10359;53.596;22.520;2022-11-18T07:03:47;5.23;;;4.60;;
20399;SDS011;10359;53.596;22.520;2022-11-18T07:06:18;88.50;;;35.67;;
20399;SDS011;10359;53.596;22.520;2022-11-18T07:08:49;7.83;;;4.23;;
20399;SDS011;10359;53.596;22.520;2022-11-18T07:11:20;8.57;;;5.00;;
20399;SDS011;10359;53.596;22.520;2022-11-18T07:13:50;6.27;;;4.40;;
20399;SDS011;10359;53.596;22.520;2022-11-18T07:16:20;10.73;;;5.57;;
20399;SDS011;10359;53.596;22.520;2022-11-18T07:18:51;8.67;;;5.13;;
20399;SDS011;10359;53.596;22.520;2022-11-18T07:21:22;12.97;;;6.30;;
20399;SDS011;10359;53.596;22.520;2022-11-18T07:23:55;41.07;;;19.20;;
20399;SDS011;10359;53.596;22.520;2022-11-18T07:26:24;8.90;;;3.70;;
20399;SDS011;10359;53.596;22.520;2022-11-18T07:28:56;26.47;;;14.67;;
20399;SDS011;10359;53.596;22.520;2022-11-18T07:31:25;20.17;;;14.50;;
20399;SDS011;10359;53.596;22.520;2022-11-18T07:33:54;11.87;;;7.80;;
20399;SDS011;10359;53.596;22.520;2022-11-18T07:36:24;28.57;;;23.50;;
20399;SDS011;10359;53.596;22.520;2022-11-18T07:39:02;13.57;;;9.23;;
20399;SDS011;10359;53.596;22.520;2022-11-18T07:41:33;6.90;;;4.43;;
20399;SDS011;10359;53.596;22.520;2022-11-18T07:44:03;9.60;;;6.90;;
20399;SDS011;10359;53.596;22.520;2022-11-18T07:46:33;7.37;;;5.37;;
20399;SDS011;10359;53.596;22.520;2022-11-18T07:49:04;17.27;;;12.93;;
20399;SDS011;10359;53.596;22.520;2022-11-18T07:51:35;5.10;;;4.00;;
20399;SDS011;10359;53.596;22.520;2022-11-18T07:54:07;5.67;;;4.10;;
20399;SDS011;10359;53.596;22.520;2022-11-18T07:56:37;6.13;;;4.13;;
20399;SDS011;10359;53.596;22.520;2022-11-18T07:59:07;6.03;;;4.23;;
20399;SDS011;10359;53.596;22.520;2022-11-18T08:01:36;11.73;;;6.97;;
20399;SDS011;10359;53.596;22.520;2022-11-18T08:04:05;10.33;;;6.37;;
20399;SDS011;10359;53.596;22.520;2022-11-18T08:06:36;9.20;;;4.70;;
20399;SDS011;10359;53.596;22.520;2022-11-18T08:09:07;14.13;;;8.97;;
20399;SDS011;10359;53.596;22.520;2022-11-18T08:11:37;6.93;;;5.20;;
20399;SDS011;10359;53.596;22.520;2022-11-18T08:14:06;15.70;;;9.80;;
20399;SDS011;10359;53.596;22.520;2022-11-18T08:16:35;8.13;;;5.40;;
20399;SDS011;10359;53.596;22.520;2022-11-18T08:19:05;15.57;;;9.27;;
20399;SDS011;10359;53.596;22.520;2022-11-18T08:21:34;9.20;;;5.77;;
20399;SDS011;10359;53.596;22.520;2022-11-18T08:24:03;36.30;;;23.27;;
20399;SDS011;10359;53.596;22.520;2022-11-18T08:26:34;10.07;;;5.80;;
20399;SDS011;10359;53.596;22.520;2022-11-18T08:29:04;11.13;;;7.10;;
20399;SDS011;10359;53.596;22.520;2022-11-18T08:31:33;44.63;;;29.73;;
20399;SDS011;10359;53.596;22.520;2022-11-18T08:34:03;7.80;;;6.80;;
20399;SDS011;10359;53.596;22.520;2022-11-18T08:36:35;3.60;;;3.17;;
20399;SDS011;10359;53.596;22.520;2022-11-18T08:39:05;4.17;;;2.97;;
20399;SDS011;10359;53.596;22.520;2022-11-18T08:41:38;3.57;;;2.60;;
20399;SDS011;10359;53.596;22.520;2022-11-18T08:44:09;7.70;;;5.73;;
20399;SDS011;10359;53.596;22.520;2022-11-18T08:46:43;4.83;;;2.90;;
20399;SDS011;10359;53.596;22.520;2022-11-18T08:49:12;7.73;;;5.03;;
20399;SDS011;10359;53.596;22.520;2022-11-18T08:51:42;8.97;;;6.43;;
20399;SDS011;10359;53.596;22.520;2022-11-18T08:54:11;3.63;;;3.10;;
20399;SDS011;10359;53.596;22.520;2022-11-18T08:56:42;3.13;;;2.47;;
20399;SDS011;10359;53.596;22.520;2022-11-18T08:59:11;4.53;;;3.47;;
20399;SDS011;10359;53.596;22.520;2022-11-18T09:01:41;2.50;;;1.83;;
20399;SDS011;10359;53.596;22.520;2022-11-18T09:04:10;4.70;;;4.20;;
20399;SDS011;10359;53.596;22.520;2022-11-18T09:06:39;2.47;;;2.20;;
20399;SDS011;10359;53.596;22.520;2022-11-18T09:09:08;3.13;;;2.40;;
20399;SDS011;10359;53.596;22.520;2022-11-18T09:11:37;6.10;;;3.00;;
20399;SDS011;10359;53.596;22.520;2022-11-18T09:14:10;9.53;;;6.17;;
20399;SDS011;10359;53.596;22.520;2022-11-18T09:16:59;20.47;;;9.90;;
20399;SDS011;10359;53.596;22.520;2022-11-18T09:19:29;14.93;;;8.50;;
20399;SDS011;10359;53.596;22.520;2022-11-18T09:22:14;6.33;;;4.50;;
20399;SDS011;10359;53.596;22.520;2022-11-18T09:24:44;7.50;;;5.90;;
20399;SDS011;10359;53.596;22.520;2022-11-18T09:27:13;30.63;;;16.63;;
20399;SDS011;10359;53.596;22.520;2022-11-18T09:29:44;8.27;;;5.17;;
20399;SDS011;10359;53.596;22.520;2022-11-18T09:32:13;4.87;;;3.70;;
20399;SDS011;10359;53.596;22.520;2022-11-18T09:34:43;8.70;;;6.83;;
20399;SDS011;10359;53.596;22.520;2022-11-18T09:37:12;4.23;;;3.33;;
20399;SDS011;10359;53.596;22.520;2022-11-18T09:39:41;10.70;;;8.27;;
20399;SDS011;10359;53.596;22.520;2022-11-18T09:42:14;16.37;;;11.60;;
20399;SDS011;10359;53.596;22.520;2022-11-18T09:45:03;5.53;;;4.10;;
20399;SDS011;10359;53.596;22.520;2022-11-18T09:47:47;5.20;;;4.17;;
20399;SDS011;10359;53.596;22.520;2022-11-18T09:53:10;5.53;;;4.03;;
20399;SDS011;10359;53.596;22.520;2022-11-18T09:55:46;3.60;;;2.93;;
20399;SDS011;10359;53.596;22.520;2022-11-18T09:58:20;4.07;;;3.63;;
20399;SDS011;10359;53.596;22.520;2022-11-18T10:00:55;4.73;;;3.23;;
20399;SDS011;10359;53.596;22.520;2022-11-18T10:03:25;5.37;;;4.67;;
20399;SDS011;10359;53.596;22.520;2022-11-18T10:05:56;4.00;;;3.27;;
20399;SDS011;10359;53.596;22.520;2022-11-18T10:08:31;3.43;;;3.13;;
20399;SDS011;10359;53.596;22.520;2022-11-18T10:11:09;3.47;;;3.10;;
20399;SDS011;10359;53.596;22.520;2022-11-18T10:13:46;3.20;;;2.87;;
20399;SDS011;10359;53.596;22.520;2022-11-18T10:16:24;4.30;;;2.80;;
20399;SDS011;10359;53.596;22.520;2022-11-18T10:19:04;10.37;;;8.30;;
20399;SDS011;10359;53.596;22.520;2022-11-18T10:21:46;5.00;;;3.97;;
20399;SDS011;10359;53.596;22.520;2022-11-18T10:24:22;3.00;;;2.27;;
20399;SDS011;10359;53.596;22.520;2022-11-18T10:26:54;5.27;;;4.00;;
20399;SDS011;10359;53.596;22.520;2022-11-18T10:29:25;4.33;;;3.57;;
20399;SDS011;10359;53.596;22.520;2022-11-18T10:31:57;7.73;;;5.80;;
20399;SDS011;10359;53.596;22.520;2022-11-18T10:34:32;6.63;;;4.93;;
20399;SDS011;10359;53.596;22.520;2022-11-18T10:37:04;8.47;;;4.87;;
20399;SDS011;10359;53.596;22.520;2022-11-18T10:39:48;7.43;;;4.90;;
20399;SDS011;10359;53.596;22.520;2022-11-18T10:42:19;11.27;;;6.50;;
20399;SDS011;10359;53.596;22.520;2022-11-18T10:44:54;6.73;;;3.60;;
20399;SDS011;10359;53.596;22.520;2022-11-18T10:47:26;3.73;;;2.77;;
20399;SDS011;10359;53.596;22.520;2022-11-18T10:49:57;7.67;;;4.50;;
20399;SDS011;10359;53.596;22.520;2022-11-18T10:52:27;3.67;;;3.10;;
20399;SDS011;10359;53.596;22.520;2022-11-18T10:55:04;5.03;;;3.50;;
20399;SDS011;10359;53.596;22.520;2022-11-18T10:57:46;6.30;;;3.63;;
20399;SDS011;10359;53.596;22.520;2022-11-18T11:00:32;8.13;;;4.33;;
20399;SDS011;10359;53.596;22.520;2022-11-18T11:03:24;5.83;;;3.90;;
20399;SDS011;10359;53.596;22.520;2022-11-18T11:06:17;16.33;;;14.73;;
20399;SDS011;10359;53.596;22.520;2022-11-18T11:09:07;16.13;;;8.73;;
20399;SDS011;10359;53.596;22.520;2022-11-18T11:11:38;23.73;;;15.20;;
20399;SDS011;10359;53.596;22.520;2022-11-18T11:14:14;17.80;;;8.90;;
20399;SDS011;10359;53.596;22.520;2022-11-18T11:16:55;17.20;;;9.93;;
20399;SDS011;10359;53.596;22.520;2022-11-18T11:19:29;12.37;;;6.27;;
20399;SDS011;10359;53.596;22.520;2022-11-18T11:22:09;10.37;;;7.07;;
20399;SDS011;10359;53.596;22.520;2022-11-18T11:24:39;11.37;;;6.40;;
20399;SDS011;10359;53.596;22.520;2022-11-18T11:27:19;10.70;;;3.93;;
20399;SDS011;10359;53.596;22.520;2022-11-18T11:30:14;10.47;;;5.40;;
20399;SDS011;10359;53.596;22.520;2022-11-18T11:35:51;9.40;;;5.10;;
20399;SDS011;10359;53.596;22.520;2022-11-18T11:38:41;9.70;;;6.20;;
20399;SDS011;10359;53.596;22.520;2022-11-18T11:41:27;9.40;;;5.67;;
20399;SDS011;10359;53.596;22.520;2022-11-18T11:44:07;19.47;;;10.70;;
20399;SDS011;10359;53.596;22.520;2022-11-18T11:46:53;19.77;;;10.90;;
20399;SDS011;10359;53.596;22.520;2022-11-18T11:49:51;22.47;;;11.70;;
20399;SDS011;10359;53.596;22.520;2022-11-18T11:52:28;8.10;;;4.80;;
20399;SDS011;10359;53.596;22.520;2022-11-18T11:55:11;7.93;;;5.03;;
20399;SDS011;10359;53.596;22.520;2022-11-18T11:57:49;9.07;;;5.93;;
20399;SDS011;10359;53.596;22.520;2022-11-18T12:00:31;14.07;;;8.33;;
20399;SDS011;10359;53.596;22.520;2022-11-18T12:03:10;12.47;;;7.57;;
20399;SDS011;10359;53.596;22.520;2022-11-18T12:05:51;14.00;;;11.40;;
20399;SDS011;10359;53.596;22.520;2022-11-18T12:08:22;8.30;;;5.20;;
20399;SDS011;10359;53.596;22.520;2022-11-18T12:10:55;14.43;;;8.40;;
20399;SDS011;10359;53.596;22.520;2022-11-18T12:13:36;13.43;;;8.20;;
20399;SDS011;10359;53.596;22.520;2022-11-18T12:16:17;30.03;;;19.70;;
20399;SDS011;10359;53.596;22.520;2022-11-18T12:18:53;13.07;;;8.30;;
20399;SDS011;10359;53.596;22.520;2022-11-18T12:24:25;9.37;;;5.03;;
20399;SDS011;10359;53.596;22.520;2022-11-18T12:26:58;8.27;;;5.60;;
20399;SDS011;10359;53.596;22.520;2022-11-18T12:29:31;10.87;;;6.27;;
20399;SDS011;10359;53.596;22.520;2022-11-18T12:32:26;21.27;;;13.77;;
20399;SDS011;10359;53.596;22.520;2022-11-18T12:34:58;9.63;;;6.30;;
20399;SDS011;10359;53.596;22.520;2022-11-18T12:37:37;8.80;;;6.67;;
20399;SDS011;10359;53.596;22.520;2022-11-18T12:43:02;6.17;;;5.10;;
20399;SDS011;10359;53.596;22.520;2022-11-18T12:45:51;5.90;;;4.47;;
20399;SDS011;10359;53.596;22.520;2022-11-18T12:48:26;5.40;;;4.70;;
20399;SDS011;10359;53.596;22.520;2022-11-18T12:54:24;9.63;;;7.47;;
20399;SDS011;10359;53.596;22.520;2022-11-18T12:56:59;7.37;;;6.00;;
20399;SDS011;10359;53.596;22.520;2022-11-18T12:59:33;8.13;;;4.00;;
20399;SDS011;10359;53.596;22.520;2022-11-18T13:02:13;10.20;;;7.27;;
20399;SDS011;10359;53.596;22.520;2022-11-18T13:07:40;5.17;;;3.70;;
20399;SDS011;10359;53.596;22.520;2022-11-18T13:10:29;6.50;;;4.53;;
20399;SDS011;10359;53.596;22.520;2022-11-18T13:13:03;6.80;;;4.23;;
20399;SDS011;10359;53.596;22.520;2022-11-18T13:15:34;6.07;;;4.67;;
20399;SDS011;10359;53.596;22.520;2022-11-18T13:18:27;6.17;;;4.10;;
20399;SDS011;10359;53.596;22.520;2022-11-18T13:20:56;9.10;;;6.67;;
20399;SDS011;10359;53.596;22.520;2022-11-18T13:23:47;7.03;;;5.20;;
20399;SDS011;10359;53.596;22.520;2022-11-18T13:26:26;4.67;;;4.17;;
20399;SDS011;10359;53.596;22.520;2022-11-18T13:29:15;20.93;;;11.50;;
20399;SDS011;10359;53.596;22.520;2022-11-18T13:31:56;8.37;;;5.67;;
20399;SDS011;10359;53.596;22.520;2022-11-18T13:34:41;7.43;;;5.80;;
20399;SDS011;10359;53.596;22.520;2022-11-18T13:37:17;8.63;;;5.93;;
20399;SDS011;10359;53.596;22.520;2022-11-18T13:39:49;12.97;;;7.50;;
20399;SDS011;10359;53.596;22.520;2022-11-18T13:42:19;11.13;;;7.57;;
20399;SDS011;10359;53.596;22.520;2022-11-18T13:44:54;14.20;;;8.23;;
20399;SDS011;10359;53.596;22.520;2022-11-18T13:47:26;9.43;;;6.90;;
20399;SDS011;10359;53.596;22.520;2022-11-18T13:50:00;10.23;;;6.90;;
20399;SDS011;10359;53.596;22.520;2022-11-18T13:52:35;12.33;;;8.13;;
20399;SDS011;10359;53.596;22.520;2022-11-18T13:55:08;14.63;;;9.00;;
20399;SDS011;10359;53.596;22.520;2022-11-18T13:57:45;17.07;;;10.50;;
20399;SDS011;10359;53.596;22.520;2022-11-18T14:00:22;44.63;;;19.67;;
20399;SDS011;10359;53.596;22.520;2022-11-18T14:02:54;35.60;;;16.63;;
20399;SDS011;10359;53.596;22.520;2022-11-18T14:05:26;27.07;;;13.90;;
20399;SDS011;10359;53.596;22.520;2022-11-18T14:08:03;44.33;;;19.63;;
20399;SDS011;10359;53.596;22.520;2022-11-18T14:10:40;25.97;;;15.10;;
20399;SDS011;10359;53.596;22.520;2022-11-18T14:13:18;22.73;;;12.97;;
20399;SDS011;10359;53.596;22.520;2022-11-18T14:16:02;24.80;;;14.77;;
20399;SDS011;10359;53.596;22.520;2022-11-18T14:18:58;18.90;;;10.80;;
20399;SDS011;10359;53.596;22.520;2022-11-18T14:21:28;16.60;;;9.83;;
20399;SDS011;10359;53.596;22.520;2022-11-18T14:23:58;14.77;;;9.27;;
20399;SDS011;10359;53.596;22.520;2022-11-18T14:26:28;16.17;;;9.67;;
20399;SDS011;10359;53.596;22.520;2022-11-18T14:29:00;24.53;;;12.53;;
20399;SDS011;10359;53.596;22.520;2022-11-18T14:31:32;25.43;;;12.43;;
20399;SDS011;10359;53.596;22.520;2022-11-18T14:34:10;26.23;;;13.97;;
20399;SDS011;10359;53.596;22.520;2022-11-18T14:36:45;30.23;;;14.60;;
20399;SDS011;10359;53.596;22.520;2022-11-18T14:39:18;22.57;;;13.80;;
20399;SDS011;10359;53.596;22.520;2022-11-18T14:41:57;25.57;;;13.70;;
20399;SDS011;10359;53.596;22.520;2022-11-18T14:44:27;31.67;;;16.57;;
20399;SDS011;10359;53.596;22.520;2022-11-18T14:46:59;29.40;;;16.23;;
20399;SDS011;10359;53.596;22.520;2022-11-18T14:49:29;34.00;;;16.77;;
20399;SDS011;10359;53.596;22.520;2022-11-18T14:52:00;35.87;;;17.87;;
20399;SDS011;10359;53.596;22.520;2022-11-18T14:54:30;35.93;;;18.37;;
20399;SDS011;10359;53.596;22.520;2022-11-18T14:57:00;37.10;;;19.57;;
20399;SDS011;10359;53.596;22.520;2022-11-18T14:59:31;38.33;;;20.40;;
20399;SDS011;10359;53.596;22.520;2022-11-18T15:02:02;39.57;;;20.67;;
20399;SDS011;10359;53.596;22.520;2022-11-18T15:04:31;39.73;;;21.67;;
20399;SDS011;10359;53.596;22.520;2022-11-18T15:07:00;37.33;;;20.57;;
20399;SDS011;10359;53.596;22.520;2022-11-18T15:09:30;34.67;;;19.33;;
20399;SDS011;10359;53.596;22.520;2022-11-18T15:11:59;34.50;;;17.77;;
20399;SDS011;10359;53.596;22.520;2022-11-18T15:14:29;29.50;;;16.87;;
20399;SDS011;10359;53.596;22.520;2022-11-18T15:16:58;31.73;;;18.47;;
20399;SDS011;10359;53.596;22.520;2022-11-18T15:19:29;29.50;;;15.33;;
20399;SDS011;10359;53.596;22.520;2022-11-18T15:21:59;59.40;;;22.37;;
20399;SDS011;10359;53.596;22.520;2022-11-18T15:24:28;204.23;;;44.97;;
20399;SDS011;10359;53.596;22.520;2022-11-18T15:26:58;253.43;;;50.03;;